Time;durP1;ratioP1;P1;durP2;ratioP2;P2;SDS_P1;SDS_P2;PMS_P1;PMS_P2;Temp;Humidity;BMP_temperature;BMP_pressure;BME280_temperature;BME280_humidity;BME280_pressure;Samples;Min_cycle;Max_cycle;Signal;HPM_P1;HPM_P2
2022/05/12 00:00:38;;;;;;;9.05;6.00;;;;;;;16.36;67.46;101846.94;5071061;28;20505;-85
2022/05/12 00:03:05;;;;;;;7.72;5.50;;;;;;;16.39;67.36;101851.47;5074699;28;20422;-84
2022/05/12 00:05:31;;;;;;;7.70;5.80;;;;;;;16.39;67.48;101849.72;5071434;28;20032;-85
2022/05/12 00:07:57;;;;;;;7.05;5.15;;;;;;;16.27;67.41;101830.66;5072707;28;20036;-84
2022/05/12 00:10:28;;;;;;;8.20;5.20;;;;;;;16.33;67.05;101840.63;5073084;28;20024;-84
2022/05/12 00:12:58;;;;;;;8.13;5.68;;;;;;;16.33;67.58;101835.34;5071986;28;20643;-84
2022/05/12 00:15:27;;;;;;;7.30;5.45;;;;;;;16.28;67.44;101832.50;5071126;28;20474;-84
2022/05/12 00:17:53;;;;;;;7.80;5.43;;;;;;;16.39;67.30;101846.19;5054436;28;20038;-84
2022/05/12 00:20:21;;;;;;;9.27;5.68;;;;;;;16.39;67.43;101843.56;5070100;28;20024;-84
2022/05/12 00:22:47;;;;;;;8.80;5.85;;;;;;;16.31;67.45;101831.72;5072069;28;20068;-84
2022/05/12 00:25:21;;;;;;;8.13;5.38;;;;;;;16.36;67.50;101841.69;5072301;28;20032;-84
2022/05/12 00:27:47;;;;;;;8.18;6.00;;;;;;;16.31;67.46;101832.63;5055059;28;20028;-83
2022/05/12 00:30:13;;;;;;;9.20;5.65;;;;;;;16.15;67.30;101801.09;5069199;28;20052;-84
2022/05/12 00:32:40;;;;;;;;;;;;;;;16.39;67.47;101844.44;5069142;28;20041;-84
2022/05/12 00:35:18;;;;;;;7.93;5.57;;;;;;;16.07;67.33;101791.09;5071273;28;19927;-85
2022/05/12 00:37:44;;;;;;;7.82;5.80;;;;;;;15.99;67.62;101783.66;5062068;28;20029;-84
2022/05/12 00:40:10;;;;;;;6.65;5.45;;;;;;;16.34;67.49;101843.34;5071392;28;20485;-84
2022/05/12 00:42:37;;;;;;;9.98;6.22;;;;;;;16.35;67.69;101844.22;5070524;28;20056;-84
2022/05/12 00:45:04;;;;;;;8.82;5.60;;;;;;;16.33;67.55;101844.16;5073161;28;20028;-84
2022/05/12 00:47:50;;;;;;;7.88;5.47;;;;;;;16.27;67.48;101834.19;5068597;28;20156;-83
2022/05/12 00:50:37;;;;;;;6.25;5.15;;;;;;;16.34;67.55;101847.69;5072541;28;20498;-84
2022/05/12 00:53:13;;;;;;;7.35;5.35;;;;;;;16.32;67.30;101838.78;5072220;28;20028;-84
2022/05/12 00:55:40;;;;;;;7.22;4.95;;;;;;;16.32;67.34;101833.53;5072270;28;20043;-84
2022/05/12 00:58:08;;;;;;;9.18;5.60;;;;;;;16.24;67.35;101822.63;5050412;28;20033;-84
2022/05/12 01:00:35;;;;;;;7.50;5.20;;;;;;;16.32;67.46;101841.44;5068359;28;20024;-85
2022/05/12 01:03:04;;;;;;;7.75;5.47;;;;;;;16.24;67.40;101831.44;5072497;28;20032;-84
2022/05/12 01:05:30;;;;;;;7.07;5.22;;;;;;;16.31;67.36;101835.25;5055741;28;20032;-84
2022/05/12 01:07:56;;;;;;;7.38;5.20;;;;;;;16.16;67.34;101808.19;5073594;28;20024;-84
2022/05/12 01:10:23;;;;;;;8.45;5.10;;;;;;;16.32;67.40;101838.78;5064478;28;20054;-84
2022/05/12 01:12:50;;;;;;;8.05;5.57;;;;;;;16.29;67.39;101835.19;5050204;28;20574;-84
2022/05/12 01:15:17;;;;;;;7.45;5.35;;;;;;;16.31;67.26;101837.91;5071989;28;20032;-84
2022/05/12 01:17:44;;;;;;;6.95;5.55;;;;;;;16.29;67.12;101837.81;5070586;28;20025;-84
2022/05/12 01:20:11;;;;;;;7.80;5.18;;;;;;;16.25;67.34;101832.31;5071019;28;20415;-84
2022/05/12 01:23:00;;;;;;;6.97;5.38;;;;;;;16.31;67.25;101848.44;5069502;28;20032;-85
2022/05/12 01:25:29;;;;;;;9.10;5.82;;;;;;;16.10;67.30;101805.25;5086867;28;20036;-84
2022/05/12 01:27:54;;;;;;;9.63;5.80;;;;;;;16.24;67.34;101833.19;5072326;28;20079;-85
2022/05/12 01:30:23;;;;;;;6.30;5.30;;;;;;;16.18;67.37;101833.78;5051154;28;20513;-84
2022/05/12 01:32:49;;;;;;;6.70;5.18;;;;;;;16.29;67.14;101845.72;5071718;28;20521;-84
2022/05/12 01:35:20;;;;;;;8.10;5.68;;;;;;;16.20;67.19;101826.84;5073087;28;20117;-84
2022/05/12 01:37:46;;;;;;;7.40;5.45;;;;;;;16.25;67.17;101829.69;5071871;28;20040;-84
2022/05/12 01:40:16;;;;;;;7.70;6.07;;;;;;;16.28;67.23;101840.41;5070772;28;20020;-83
2022/05/12 01:42:41;;;;;;;8.60;5.60;;;;;;;16.23;67.27;101834.91;5071646;28;20028;-83
2022/05/12 01:45:09;;;;;;;6.97;5.38;;;;;;;16.28;67.18;101841.31;5071500;28;20016;-83
2022/05/12 01:47:36;;;;;;;8.77;5.47;;;;;;;16.03;67.16;101797.03;5070611;28;20112;-84
2022/05/12 01:50:02;;;;;;;7.05;5.25;;;;;;;16.27;67.22;101850.03;5072505;28;20413;-84
2022/05/12 01:52:28;;;;;;;7.40;5.45;;;;;;;16.02;67.24;101802.22;5069985;28;20056;-83
2022/05/12 01:54:54;;;;;;;6.20;5.35;;;;;;;16.18;67.02;101825.88;5071028;28;20060;-84
2022/05/12 01:57:22;;;;;;;7.40;5.32;;;;;;;16.13;67.13;101818.56;5068112;28;20422;-85
2022/05/12 01:59:49;;;;;;;7.72;5.68;;;;;;;16.26;67.52;101844.69;5072232;28;20066;-84
2022/05/12 02:02:15;;;;;;;6.35;5.20;;;;;;;16.15;67.20;101822.16;5067929;28;20086;-84
2022/05/12 02:04:41;;;;;;;6.85;5.15;;;;;;;16.19;67.21;101837.31;5070114;28;20466;-84
2022/05/12 02:07:08;;;;;;;7.70;5.40;;;;;;;16.06;67.31;101826.19;5070588;28;20025;-84
2022/05/12 02:09:33;;;;;;;7.72;5.57;;;;;;;16.23;67.16;101853.38;5070115;28;20032;-84
2022/05/12 02:11:59;;;;;;;7.07;5.50;;;;;;;16.01;67.29;101813.63;5068215;28;20048;-84
2022/05/12 02:14:25;;;;;;;7.25;5.13;;;;;;;16.25;67.10;101856.06;5070902;28;20458;-84
2022/05/12 02:16:51;;;;;;;7.15;5.60;;;;;;;16.19;67.27;101840.88;5068825;28;20060;-84
2022/05/12 02:19:17;;;;;;;8.10;5.57;;;;;;;16.22;67.25;101843.63;5071364;28;20579;-84
2022/05/12 02:21:43;;;;;;;8.82;5.78;;;;;;;16.13;67.09;101829.09;5068969;28;20024;-84
2022/05/12 02:24:09;;;;;;;7.68;5.43;;;;;;;16.23;67.14;101852.44;5069681;28;20047;-84
2022/05/12 02:26:38;;;;;;;7.82;5.47;;;;;;;16.16;67.29;101845.97;5071983;28;20040;-84
2022/05/12 02:29:22;;;;;;;7.70;5.88;;;;;;;15.74;67.39;101757.84;5068793;28;20090;-84
2022/05/12 02:31:51;;;;;;;6.85;5.32;;;;;;;15.90;66.80;101801.66;5070191;28;20542;-84
2022/05/12 02:34:17;;;;;;;8.60;5.72;;;;;;;15.96;67.18;101805.50;5069395;28;20024;-84
2022/05/12 02:36:59;;;;;;;;;;;;;;;16.24;67.39;101855.16;5070892;28;20406;-83
2022/05/12 02:39:37;;;;;;;7.50;5.13;;;;;;;16.18;67.28;101852.22;5057178;28;19916;-83
2022/05/12 02:42:05;;;;;;;8.68;5.93;;;;;;;16.17;67.29;101846.88;5070466;28;20028;-84
2022/05/12 02:44:31;;;;;;;7.45;5.30;;;;;;;16.18;67.24;101857.50;5071560;28;20585;-84
2022/05/12 02:46:57;;;;;;;7.45;5.53;;;;;;;16.16;67.23;101856.50;5053043;28;20028;-84
2022/05/12 02:49:23;;;;;;;7.93;5.60;;;;;;;16.17;67.26;101860.03;5068600;28;20512;-84
2022/05/12 02:51:49;;;;;;;7.05;5.68;;;;;;;16.10;67.26;101845.66;5069203;28;20063;-84
2022/05/12 02:54:16;;;;;;;8.85;5.72;;;;;;;16.14;67.30;101858.16;5069935;28;20486;-84
2022/05/12 02:56:41;;;;;;;7.18;5.53;;;;;;;15.98;67.34;101835.47;5068881;28;20482;-84
2022/05/12 02:59:08;;;;;;;9.00;5.78;;;;;;;16.13;67.22;101866.00;5069174;28;20107;-84
2022/05/12 03:01:34;;;;;;;;;;;;;;;16.16;67.39;101863.53;5070237;28;20108;-84
2022/05/12 03:04:00;;;;;;;8.85;5.80;;;;;;;16.12;67.36;101857.19;5068699;28;20295;-83
2022/05/12 03:06:27;;;;;;;7.40;5.57;;;;;;;16.03;67.30;101840.94;5070196;28;20628;-84
2022/05/12 03:08:53;;;;;;;;;;;;;;;16.14;67.41;101866.06;5066875;28;20481;-83
2022/05/12 03:11:19;;;;;;;7.57;5.65;;;;;;;16.10;67.46;101860.59;5067386;28;19923;-83
2022/05/12 03:13:50;;;;;;;8.05;5.38;;;;;;;15.99;67.45;101849.53;5070535;28;20028;-84
2022/05/12 03:16:18;;;;;;;7.47;5.55;;;;;;;16.06;67.32;101856.88;5068239;28;20025;-84
2022/05/12 03:18:46;;;;;;;7.40;5.22;;;;;;;16.09;67.37;101870.22;5062812;28;20021;-83
2022/05/12 03:21:15;;;;;;;7.20;5.28;;;;;;;15.88;67.17;101831.44;5068896;28;20136;-84
2022/05/12 03:23:40;;;;;;;8.40;5.20;;;;;;;15.88;67.33;101833.19;5067107;28;20041;-84
2022/05/12 03:26:09;;;;;;;7.25;4.90;;;;;;;16.00;67.30;101857.50;5069001;28;20508;-84
2022/05/12 03:28:35;;;;;;;7.32;5.65;;;;;;;16.03;67.34;101855.00;5069226;28;20032;-84
2022/05/12 03:31:01;;;;;;;8.32;5.30;;;;;;;16.10;67.13;101871.13;5070006;28;20050;-84
2022/05/12 03:33:27;;;;;;;7.68;5.30;;;;;;;15.75;67.26;101820.25;5071241;28;20158;-84
2022/05/12 03:35:52;;;;;;;7.25;5.50;;;;;;;15.84;67.27;101832.13;5070242;28;20031;-84
2022/05/12 03:38:21;;;;;;;6.15;5.32;;;;;;;16.00;67.30;101857.50;5070646;28;20028;-84
2022/05/12 03:40:47;;;;;;;7.75;5.82;;;;;;;16.08;67.46;101887.75;5071109;28;20024;-84
2022/05/12 03:44:46;;;;;;;;;;;;;;;16.12;67.46;101885.28;5069883;28;20169;-84
2022/05/12 03:45:59;;;;;;;7.18;5.07;;;;;;;16.07;67.40;101879.78;5071103;28;19912;-84
2022/05/12 03:48:25;;;;;;;7.93;5.95;;;;;;;16.07;67.47;101885.97;5052500;28;20414;-84
2022/05/12 03:50:50;;;;;;;7.40;5.63;;;;;;;16.05;67.32;101882.34;5086930;28;20020;-83
2022/05/12 03:53:17;;;;;;;6.43;4.95;;;;;;;16.07;67.63;101885.06;5086557;28;20031;-84
2022/05/12 03:55:42;;;;;;;;;;;;;;;16.11;67.55;101888.72;5071785;28;20029;-83
2022/05/12 03:58:08;;;;;;;6.88;5.30;;;;;;;15.96;67.34;101866.09;5071195;28;20313;-83
2022/05/12 04:00:35;;;;;;;7.82;5.55;;;;;;;15.99;67.44;101874.13;5070281;28;20413;-84
2022/05/12 04:03:01;;;;;;;7.40;5.13;;;;;;;16.06;67.53;101888.50;5070818;28;20032;-83
2022/05/12 04:05:28;;;;;;;8.23;5.72;;;;;;;15.88;67.31;101863.06;5070000;28;20126;-83
2022/05/12 04:07:54;;;;;;;7.85;5.65;;;;;;;15.92;67.35;101868.47;5053039;28;20024;-84
2022/05/12 04:10:21;;;;;;;9.45;6.05;;;;;;;16.04;67.33;101899.00;5069451;28;20031;-84
2022/05/12 04:12:47;;;;;;;6.63;5.25;;;;;;;16.00;67.48;101889.13;5069629;28;20548;-84
2022/05/12 04:15:15;;;;;;;6.55;5.38;;;;;;;15.81;67.40;101860.03;5068444;28;20417;-84
2022/05/12 04:17:42;;;;;;;6.68;5.15;;;;;;;15.98;67.41;101884.59;5069387;28;20041;-84
2022/05/12 04:20:12;;;;;;;5.95;4.72;;;;;;;15.89;67.58;101877.13;5067765;28;20039;-84
2022/05/12 04:22:43;;;;;;;8.00;5.47;;;;;;;15.67;67.30;101847.06;5068921;28;20086;-84
2022/05/12 04:25:09;;;;;;;7.40;5.40;;;;;;;15.90;67.46;101884.22;5068213;28;20025;-84
2022/05/12 04:27:37;;;;;;;;;;;;;;;16.08;67.51;101902.66;5062984;28;20032;-83
2022/05/12 04:30:05;;;;;;;6.80;5.10;;;;;;;16.06;67.43;101909.59;5066173;28;19917;-84
2022/05/12 04:32:33;;;;;;;8.30;5.45;;;;;;;15.99;67.56;101908.38;5067897;28;20884;-83
2022/05/12 04:35:12;;;;;;;6.75;5.35;;;;;;;15.91;67.43;101888.66;5069943;28;20056;-84
2022/05/12 04:37:39;;;;;;;9.35;5.47;;;;;;;16.04;67.52;101914.81;5073481;28;20032;-84
2022/05/12 04:40:15;;;;;;;7.72;5.43;;;;;;;16.05;67.39;101926.25;5070710;28;20437;-83
2022/05/12 04:42:41;;;;;;;7.83;5.87;;;;;;;16.05;67.42;101918.34;5072908;28;20102;-84
2022/05/12 04:45:09;;;;;;;6.70;5.00;;;;;;;16.03;67.29;101920.00;5053617;28;20028;-85
2022/05/12 04:47:36;;;;;;;7.18;5.40;;;;;;;16.05;67.52;101923.59;5070935;28;20082;-84
2022/05/12 04:50:03;;;;;;;7.40;5.07;;;;;;;16.05;67.52;101916.59;5072300;28;20055;-85
2022/05/12 04:52:32;;;;;;;7.65;5.10;;;;;;;15.80;67.43;101882.84;5072766;28;20532;-85
2022/05/12 04:55:00;;;;;;;6.30;4.70;;;;;;;15.90;67.58;101899.13;5070188;28;20063;-84
2022/05/12 04:57:26;;;;;;;6.20;4.53;;;;;;;15.84;67.90;101889.19;5072951;28;20524;-84
2022/05/12 04:59:55;;;;;;;6.65;5.13;;;;;;;16.05;67.66;101934.16;5071947;28;20036;-85
2022/05/12 05:02:21;;;;;;;5.93;4.95;;;;;;;15.87;67.68;101898.16;5070067;28;20059;-85
2022/05/12 05:04:47;;;;;;;;;;;;;;;16.07;67.86;101925.47;5072515;28;20037;-85
2022/05/12 05:07:13;;;;;;;8.02;4.90;;;;;;;16.06;67.72;101923.69;5069725;28;21196;-85
2022/05/12 05:09:40;;;;;;;5.88;5.07;;;;;;;15.86;67.68;101896.31;5071941;28;20037;-84
2022/05/12 05:12:06;;;;;;;6.38;5.15;;;;;;;15.67;67.85;101869.84;5071335;28;20553;-84
2022/05/12 05:14:32;;;;;;;6.00;4.85;;;;;;;15.98;67.83;101918.84;5053955;28;20161;-84
2022/05/12 05:16:57;;;;;;;7.28;5.50;;;;;;;15.92;67.70;101908.00;5070835;28;20127;-84
2022/05/12 05:19:25;;;;;;;6.68;5.57;;;;;;;15.97;67.88;101914.41;5070471;28;20425;-84
2022/05/12 05:21:51;;;;;;;6.60;5.43;;;;;;;16.04;67.97;101924.41;5066836;28;20563;-85
2022/05/12 05:24:17;;;;;;;6.82;5.25;;;;;;;15.90;68.07;101905.28;5069212;28;20032;-85
2022/05/12 05:26:43;;;;;;;6.65;5.10;;;;;;;15.64;68.65;101878.50;5061025;28;20029;-85
2022/05/12 05:29:10;;;;;;;6.13;5.10;;;;;;;15.82;68.68;101918.06;5058525;28;20444;-85
2022/05/12 05:31:37;;;;;;;6.43;4.78;;;;;;;15.63;68.49;101871.41;5071872;28;20071;-85
2022/05/12 05:34:03;;;;;;;6.85;5.43;;;;;;;15.61;68.70;101875.69;5066545;28;20105;-84
2022/05/12 05:36:29;;;;;;;5.82;5.03;;;;;;;15.77;69.35;101927.47;5078529;28;20486;-84
2022/05/12 05:38:54;;;;;;;5.65;4.95;;;;;;;15.47;69.10;101867.13;5069930;28;20029;-85
2022/05/12 05:41:20;;;;;;;6.60;5.03;;;;;;;15.80;68.99;101916.19;5066708;28;20025;-84
2022/05/12 05:43:45;;;;;;;6.20;5.18;;;;;;;15.65;69.20;101900.47;5065199;28;20036;-84
2022/05/12 05:46:18;;;;;;;6.30;5.10;;;;;;;15.88;69.12;101936.81;5070854;28;20094;-86
2022/05/12 05:48:46;;;;;;;7.32;5.20;;;;;;;15.72;69.02;101910.50;5055348;28;20046;-84
2022/05/12 05:53:55;;;;;;;7.97;5.22;;;;;;;15.83;69.21;101925.16;5071957;28;20563;-85
2022/05/12 05:56:21;;;;;;;6.60;4.97;;;;;;;15.80;69.37;101935.53;5071455;28;20064;-84
2022/05/12 05:58:47;;;;;;;7.32;4.93;;;;;;;15.81;69.20;101933.78;5071544;28;20055;-83
2022/05/12 06:01:13;;;;;;;7.13;5.13;;;;;;;15.66;69.28;101916.34;5070342;28;20119;-85
2022/05/12 06:03:39;;;;;;;6.78;5.40;;;;;;;15.87;69.17;101935.03;5066452;28;20029;-84
2022/05/12 06:06:06;;;;;;;6.93;5.38;;;;;;;15.84;69.32;101945.41;5068063;28;20025;-87
2022/05/12 06:08:31;;;;;;;;;;;;;;;15.86;69.35;101935.84;5052582;28;20430;-85
2022/05/12 06:11:03;;;;;;;6.40;5.25;;;;;;;15.90;69.12;101938.66;5052480;28;19912;-85
2022/05/12 06:13:28;;;;;;;6.45;5.10;;;;;;;15.77;69.43;101926.53;5051616;28;20045;-85
2022/05/12 06:15:54;;;;;;;7.32;5.43;;;;;;;15.80;69.15;101927.63;5085184;28;20085;-84
2022/05/12 06:18:20;;;;;;;7.07;5.50;;;;;;;15.84;69.46;101932.22;5078400;28;20020;-84
2022/05/12 06:20:47;;;;;;;6.68;5.45;;;;;;;15.85;69.18;101922.59;5087627;28;20058;-84
2022/05/12 06:23:13;;;;;;;6.22;4.82;;;;;;;15.92;69.13;101939.59;5071196;28;20020;-84
2022/05/12 06:25:39;;;;;;;6.53;5.38;;;;;;;15.92;69.21;101935.25;5070662;28;20023;-84
2022/05/12 06:28:06;;;;;;;6.78;5.30;;;;;;;15.96;69.11;101941.56;5079317;28;20025;-84
2022/05/12 06:30:32;;;;;;;6.97;5.18;;;;;;;15.74;69.06;101907.97;5071506;28;20486;-84
2022/05/12 06:32:57;;;;;;;6.28;4.95;;;;;;;15.95;69.25;101945.94;5074643;28;20028;-83
2022/05/12 06:35:25;;;;;;;6.75;5.18;;;;;;;15.91;69.26;101927.28;5075982;28;20081;-84
2022/05/12 06:37:51;;;;;;;6.18;5.07;;;;;;;15.81;69.42;101924.19;5087952;28;20024;-84
2022/05/12 06:40:23;;;;;;;;;;;;;;;15.98;69.19;101934.63;5089099;28;20020;-84
2022/05/12 06:42:50;;;;;;;6.55;5.32;;;;;;;15.86;69.22;101920.03;5080497;28;20453;-83
2022/05/12 06:45:18;;;;;;;7.00;5.60;;;;;;;15.66;69.32;101883.84;5072497;28;20024;-84
2022/05/12 06:47:50;;;;;;;6.65;5.10;;;;;;;15.95;69.33;101930.13;5064500;28;20101;-83
2022/05/12 06:50:27;;;;;;;7.75;5.32;;;;;;;15.98;69.43;101929.38;5089842;28;20050;-84
2022/05/12 06:52:53;;;;;;;7.38;5.38;;;;;;;15.84;69.04;101899.72;5086849;28;20791;-83
2022/05/12 06:55:20;;;;;;;7.82;5.28;;;;;;;15.93;69.18;101912.44;5065613;28;20417;-84
2022/05/12 06:57:46;;;;;;;6.63;5.35;;;;;;;16.05;68.98;101929.78;5072073;28;20035;-83
2022/05/12 07:00:16;;;;;;;7.07;5.40;;;;;;;15.93;69.09;101915.97;5080522;28;20024;-84
2022/05/12 07:02:45;;;;;;;6.22;5.53;;;;;;;16.02;69.16;101926.06;5069651;28;20035;-83
2022/05/12 07:05:17;;;;;;;8.57;5.35;;;;;;;15.93;69.15;101899.28;5076180;28;20100;-84
2022/05/12 07:07:43;;;;;;;8.63;5.93;;;;;;;16.04;69.18;101929.69;5050015;28;20564;-84
2022/05/12 07:10:10;;;;;;;6.55;5.50;;;;;;;16.00;69.01;101907.56;5060377;28;20107;-84
2022/05/12 07:12:36;;;;;;;8.48;5.80;;;;;;;15.93;69.32;101904.53;5069022;28;20147;-84
2022/05/12 07:15:02;;;;;;;7.70;5.32;;;;;;;16.12;69.30;101925.72;5068655;28;20533;-83
2022/05/12 07:17:27;;;;;;;7.22;5.60;;;;;;;15.89;68.98;101885.03;5067653;28;20456;-84
2022/05/12 07:26:35;;;;;;;7.20;5.63;;;;;;;16.14;69.36;101923.16;5070333;28;20025;-83
2022/05/12 07:28:12;;;;;;;8.27;5.88;;;;;;;16.14;69.29;101925.78;5081949;28;20039;-83
2022/05/12 07:33:43;;;;;;;8.98;6.18;;;;;;;16.22;69.39;101924.44;4991753;28;20046;-84
2022/05/12 07:36:20;;;;;;;10.60;5.93;;;;;;;15.95;69.16;101879.19;4969461;28;20220;-83
2022/05/12 07:38:49;;;;;;;12.18;6.50;;;;;;;16.16;69.21;101914.50;5023907;28;20051;-85
2022/05/12 07:41:16;;;;;;;9.85;5.78;;;;;;;16.08;69.29;101900.03;5075165;28;20537;-85
2022/05/12 07:43:43;;;;;;;9.23;6.50;;;;;;;16.12;69.19;101903.72;5077592;28;20059;-84
2022/05/12 07:46:11;;;;;;;8.63;6.30;;;;;;;16.26;69.15;101924.66;5070686;28;20036;-84
2022/05/12 07:48:38;;;;;;;14.85;6.70;;;;;;;16.18;69.04;101910.19;5090664;28;20024;-85
2022/05/12 07:51:04;;;;;;;9.57;6.15;;;;;;;16.22;68.98;101903.38;5072610;28;20055;-85
2022/05/12 07:53:30;;;;;;;11.45;6.53;;;;;;;16.32;69.06;101923.16;5080617;28;20033;-86
2022/05/12 07:55:56;;;;;;;11.00;6.53;;;;;;;16.34;69.04;101924.13;5067381;28;20040;-85
2022/05/12 07:58:22;;;;;;;10.82;6.28;;;;;;;16.20;68.99;101890.09;5068399;28;20036;-85
2022/05/12 08:00:47;;;;;;;11.75;6.60;;;;;;;16.35;69.38;101920.69;5070849;28;20498;-84
2022/05/12 08:03:13;;;;;;;14.00;7.10;;;;;;;16.34;69.30;101913.59;5066075;28;20033;-83
2022/05/12 08:05:38;;;;;;;9.90;6.45;;;;;;;16.28;69.24;101895.75;5063986;28;20095;-83
2022/05/12 08:08:06;;;;;;;14.02;7.43;;;;;;;16.38;69.44;101919.09;5068082;28;20429;-84
2022/05/12 08:10:32;;;;;;;11.77;6.65;;;;;;;16.36;69.28;101917.19;5073508;28;20087;-84
2022/05/12 08:12:58;;;;;;;10.80;7.18;;;;;;;16.38;69.68;101921.75;5073001;28;20144;-84
2022/05/12 08:15:25;;;;;;;11.30;7.05;;;;;;;16.42;69.45;101921.03;5066508;28;20031;-84
2022/05/12 08:17:57;;;;;;;10.55;7.47;;;;;;;16.40;69.44;101917.44;5067634;28;20028;-83
2022/05/12 08:20:24;;;;;;;12.77;6.97;;;;;;;16.28;69.71;101901.91;5072156;28;20066;-83
2022/05/12 08:22:50;;;;;;;14.55;7.68;;;;;;;16.38;69.63;101905.00;5071480;28;20032;-82
2022/05/12 08:25:16;;;;;;;12.32;7.60;;;;;;;16.40;69.48;101905.97;5072308;28;20029;-83
2022/05/12 08:27:42;;;;;;;12.63;6.90;;;;;;;16.48;69.40;101909.88;5073630;28;20041;-83
2022/05/12 08:30:12;;;;;;;12.77;7.03;;;;;;;16.35;69.20;101895.22;5063743;28;20051;-82
2022/05/12 08:32:37;;;;;;;11.45;7.25;;;;;;;16.42;69.40;101899.94;5074807;28;20066;-83
2022/05/12 08:35:04;;;;;;;14.05;7.30;;;;;;;16.50;69.33;101918.78;5074174;28;20020;-83
2022/05/12 08:37:30;;;;;;;10.98;7.28;;;;;;;16.51;69.49;101927.59;5089305;28;20043;-83
2022/05/12 08:39:56;;;;;;;11.65;7.20;;;;;;;16.41;69.28;101898.16;5079372;28;20024;-84
2022/05/12 08:42:35;;;;;;;12.50;7.10;;;;;;;16.55;69.41;101919.91;5074063;28;20090;-84
2022/05/12 08:45:05;;;;;;;10.77;7.20;;;;;;;16.45;69.37;101902.75;5072439;28;20021;-83
2022/05/12 08:47:34;;;;;;;11.52;7.13;;;;;;;16.46;69.21;101893.09;5077513;28;20162;-83
2022/05/12 08:50:00;;;;;;;11.82;7.25;;;;;;;16.41;69.28;101879.69;5052740;28;20500;-84
2022/05/12 08:52:39;;;;;;;13.13;7.05;;;;;;;16.57;69.34;101906.78;5053170;28;20467;-85
2022/05/12 08:55:19;;;;;;;12.43;7.60;;;;;;;16.49;69.38;101903.81;5069621;28;20115;-84
2022/05/12 08:57:58;;;;;;;15.52;7.70;;;;;;;16.63;69.32;101909.72;5074026;28;20040;-84
2022/05/12 09:00:26;;;;;;;10.48;6.97;;;;;;;16.67;69.24;101904.66;5072815;28;20036;-84
2022/05/12 09:03:01;;;;;;;11.38;7.28;;;;;;;16.66;69.23;101908.16;5089150;28;20450;-84
2022/05/12 09:05:30;;;;;;;12.52;7.47;;;;;;;16.66;69.38;101910.78;5072662;28;20101;-84
2022/05/12 09:08:15;;;;;;;12.45;7.38;;;;;;;16.65;69.37;101906.31;5089233;28;20024;-84
2022/05/12 09:10:44;;;;;;;12.80;7.32;;;;;;;16.72;69.28;101903.97;5072574;28;20033;-83
2022/05/12 09:13:39;;;;;;;11.57;7.35;;;;;;;16.71;69.31;101903.06;5073372;28;20169;-84
2022/05/12 09:16:11;;;;;;;12.82;7.43;;;;;;;16.69;69.59;101912.66;5062726;28;20049;-84
2022/05/12 09:18:39;;;;;;;10.82;7.38;;;;;;;16.59;69.54;101897.22;5061138;28;20025;-85
2022/05/12 09:21:10;;;;;;;12.40;6.88;;;;;;;16.69;69.51;101908.28;5050965;28;20430;-85
2022/05/12 09:23:37;;;;;;;12.88;7.70;;;;;;;16.60;69.57;101884.13;5050891;28;20441;-84
2022/05/12 09:26:29;;;;;;;12.27;7.78;;;;;;;16.74;69.45;101897.94;5067637;28;20051;-84
2022/05/12 09:29:10;;;;;;;10.18;7.22;;;;;;;16.69;69.23;101889.81;5045151;28;20037;-84
2022/05/12 09:31:36;;;;;;;11.75;7.90;;;;;;;16.74;69.47;101903.22;5050673;28;20028;-84
2022/05/12 09:34:23;;;;;;;12.98;7.70;;;;;;;16.77;69.45;101907.75;5067432;28;20032;-84
2022/05/12 09:36:49;;;;;;;;;;;;;;;16.79;69.49;101900.81;5052654;28;20032;-83
2022/05/12 09:39:37;;;;;;;11.48;7.20;;;;;;;16.67;69.50;101873.00;5051025;28;19909;-84
2022/05/12 09:42:05;;;;;;;10.95;7.43;;;;;;;16.65;69.70;101871.13;5050503;28;20036;-84
2022/05/12 09:44:33;;;;;;;12.52;7.35;;;;;;;16.79;69.54;101887.63;5067507;28;20036;-83
2022/05/12 09:47:09;;;;;;;12.15;7.20;;;;;;;16.79;69.68;101888.50;5052251;28;20036;-84
2022/05/12 09:49:38;;;;;;;9.73;6.88;;;;;;;16.81;69.63;101891.28;5066642;28;20028;-83
2022/05/12 09:52:28;;;;;;;10.18;7.07;;;;;;;16.83;69.56;101895.78;5052214;28;20048;-84
2022/05/12 09:55:17;;;;;;;13.15;7.65;;;;;;;16.87;69.45;101884.53;5052182;28;20104;-84
2022/05/12 09:57:48;;;;;;;10.38;7.00;;;;;;;16.86;69.65;101890.63;5052364;28;20028;-85
2022/05/12 10:00:38;;;;;;;10.43;6.70;;;;;;;16.89;69.63;101893.44;5051361;28;20031;-84
2022/05/12 10:09:23;;;;;;;12.65;7.57;;;;;;;16.93;69.78;101881.25;5050913;28;20168;-84
2022/05/12 10:12:11;;;;;;;10.38;7.20;;;;;;;16.94;69.72;101883.06;5066903;28;20179;-85
2022/05/12 10:14:58;;;;;;;9.32;7.15;;;;;;;16.94;69.63;101885.72;5051885;28;20063;-84
2022/05/12 10:17:48;;;;;;;13.70;7.13;;;;;;;16.96;69.92;101878.78;5071225;28;20013;-84
2022/05/12 10:20:21;;;;;;;11.13;7.10;;;;;;;16.86;69.71;101860.72;5056954;28;20119;-83
2022/05/12 10:22:59;;;;;;;12.63;7.10;;;;;;;17.00;69.74;101882.47;5060750;28;20037;-84
2022/05/12 10:25:59;;;;;;;11.15;7.18;;;;;;;16.97;69.84;101874.41;5069916;28;20029;-84
2022/05/12 10:28:33;;;;;;;8.25;6.90;;;;;;;17.03;69.81;101893.16;5057643;28;20498;-84
2022/05/12 10:31:17;;;;;;;10.35;6.93;;;;;;;17.04;69.70;101879.13;5065535;28;20121;-84
2022/05/12 10:33:52;;;;;;;11.00;6.88;;;;;;;17.06;69.73;101880.09;5051107;28;20036;-83
2022/05/12 10:36:33;;;;;;;8.75;6.72;;;;;;;17.08;69.80;101881.06;5056172;28;20020;-84
2022/05/12 10:39:11;;;;;;;10.02;7.13;;;;;;;17.08;69.87;101878.41;5051270;28;20032;-83
2022/05/12 10:42:11;;;;;;;10.55;7.25;;;;;;;16.91;69.56;101845.97;5051406;28;20112;-84
2022/05/12 10:44:41;;;;;;;9.98;6.80;;;;;;;17.07;69.69;101866.97;5052545;28;20028;-84
2022/05/12 10:47:10;;;;;;;8.98;6.90;;;;;;;17.13;69.47;101876.00;5053564;28;20029;-85
2022/05/12 10:50:03;;;;;;;10.70;6.72;;;;;;;17.15;69.73;101871.69;5054138;28;20021;-84
2022/05/12 10:52:35;;;;;;;10.38;6.90;;;;;;;17.13;69.70;101868.97;5051454;28;20052;-84
2022/05/12 10:55:18;;;;;;;9.60;7.13;;;;;;;17.18;69.42;101875.34;5052074;28;20029;-84
2022/05/12 10:58:19;;;;;;;10.10;6.85;;;;;;;16.97;69.72;101840.97;5051877;28;20031;-84
2022/05/12 11:01:11;;;;;;;12.95;7.40;;;;;;;17.08;69.63;101850.31;5050770;28;20021;-84
2022/05/12 11:03:54;;;;;;;10.07;6.80;;;;;;;17.02;69.63;101833.31;5050071;28;20142;-83
2022/05/12 11:06:25;;;;;;;10.20;6.88;;;;;;;17.21;69.56;101859.66;5050299;28;20028;-84
2022/05/12 11:08:59;;;;;;;9.02;6.55;;;;;;;17.24;69.52;101874.75;5050399;28;20024;-84
2022/05/12 11:11:28;;;;;;;10.45;7.50;;;;;;;17.09;69.75;101838.00;5050204;28;20104;-84
2022/05/12 11:14:20;;;;;;;11.35;7.22;;;;;;;17.26;69.57;101865.16;5050370;28;20516;-83
2022/05/12 11:17:41;;;;;;;13.40;6.80;;;;;;;17.25;69.65;101865.97;5050262;28;20021;-83
2022/05/12 11:20:32;;;;;;;10.32;6.75;;;;;;;17.27;69.57;101866.94;4993450;28;20149;-83
2022/05/12 11:23:15;;;;;;;11.07;7.13;;;;;;;17.19;69.54;101850.78;5051495;28;20045;-83
2022/05/12 11:26:03;;;;;;;10.60;6.80;;;;;;;17.26;69.59;101860.75;5050467;28;20020;-84
2022/05/12 11:32:18;;;;;;;8.32;6.65;;;;;;;17.32;69.57;101859.25;5051827;28;20409;-83
2022/05/12 11:35:02;;;;;;;8.15;6.50;;;;;;;17.23;69.47;101835.97;5009835;28;20025;-83
2022/05/12 11:37:47;;;;;;;8.88;6.60;;;;;;;17.33;69.60;101854.00;5009590;28;20034;-84
2022/05/12 11:40:44;;;;;;;9.40;6.53;;;;;;;17.38;69.38;101854.25;5039979;28;20402;-84
2022/05/12 11:46:23;;;;;;;11.43;6.45;;;;;;;17.34;69.65;101855.84;5054623;28;20055;-84
2022/05/12 11:49:01;;;;;;;11.50;7.28;;;;;;;17.36;69.57;101856.81;5055381;28;20028;-84
2022/05/12 11:51:43;;;;;;;11.20;6.68;;;;;;;17.20;69.62;101833.19;5053341;28;20051;-83
2022/05/12 11:54:38;;;;;;;10.45;7.00;;;;;;;17.40;69.47;101852.53;5055664;28;20037;-83
2022/05/12 11:57:27;;;;;;;13.35;6.63;;;;;;;17.43;69.44;101861.50;5053732;28;20460;-84
2022/05/12 11:59:54;;;;;;;9.95;6.97;;;;;;;17.35;69.58;101840.88;5054983;28;20099;-83
2022/05/12 12:02:29;;;;;;;10.65;6.57;;;;;;;17.42;69.66;101851.78;5054205;28;20441;-83
2022/05/12 12:04:59;;;;;;;9.40;6.30;;;;;;;17.42;69.85;101846.50;5055140;28;20032;-83